Time;durP1;ratioP1;P1;durP2;ratioP2;P2;SDS_P1;SDS_P2;PMS_P1;PMS_P2;Temp;Humidity;BMP_temperature;BMP_pressure;BME280_temperature;BME280_humidity;BME280_pressure;Samples;Min_cycle;Max_cycle;Signal;HPM_P1;HPM_P2
2023/07/14 00:01:19;;;;;;;3.13;2.80;;;14.50;82.20;;;;;;5052490;28;20537;-49
2023/07/14 00:03:46;;;;;;;2.90;2.70;;;14.50;79.00;;;;;;5051188;28;20466;-50
2023/07/14 00:06:14;;;;;;;5.07;3.33;;;14.50;76.80;;;;;;5043707;28;20545;-50
2023/07/14 00:08:40;;;;;;;3.77;2.43;;;14.50;82.70;;;;;;5044722;28;20562;-50
2023/07/14 00:11:13;;;;;;;3.33;2.80;;;14.50;77.00;;;;;;5041292;28;20979;-50
2023/07/14 00:13:40;;;;;;;3.30;3.00;;;14.50;81.60;;;;;;5051949;28;20481;-50
2023/07/14 00:16:12;;;;;;;5.13;2.80;;;14.40;82.10;;;;;;5051375;28;20497;-50
2023/07/14 00:18:39;;;;;;;2.83;2.63;;;14.30;84.70;;;;;;5049568;28;20561;-50
2023/07/14 00:21:06;;;;;;;11.47;2.93;;;14.30;82.60;;;;;;5050948;28;20490;-50
2023/07/14 00:23:32;;;;;;;6.50;2.70;;;14.20;83.30;;;;;;5052280;28;20508;-50
2023/07/14 00:25:59;;;;;;;3.17;2.80;;;14.20;81.00;;;;;;5049909;28;20493;-50
2023/07/14 00:28:26;;;;;;;4.70;2.73;;;14.20;77.60;;;;;;5052334;28;21013;-50
2023/07/14 00:30:53;;;;;;;2.77;2.57;;;14.20;76.80;;;;;;5051992;28;20545;-50
2023/07/14 00:33:20;;;;;;;4.90;2.77;;;14.10;77.30;;;;;;5049597;28;20494;-49
2023/07/14 00:35:48;;;;;;;4.40;2.80;;;14.10;79.80;;;;;;5050153;28;21006;-50
2023/07/14 00:38:14;;;;;;;8.73;3.53;;;14.00;77.10;;;;;;5051071;28;20826;-49
2023/07/14 00:40:43;;;;;;;3.27;2.70;;;14.10;77.20;;;;;;5050846;28;20536;-51
2023/07/14 00:43:17;;;;;;;6.20;2.50;;;14.10;78.40;;;;;;5052245;28;20494;-50
2023/07/14 00:45:47;;;;;;;2.83;2.53;;;14.00;80.50;;;;;;5042417;28;20458;-50
2023/07/14 00:48:16;;;;;;;3.23;2.63;;;14.00;81.10;;;;;;5049764;28;20564;-53
2023/07/14 00:50:47;;;;;;;2.43;2.23;;;14.00;82.30;;;;;;5044585;28;21032;-53
2023/07/14 00:53:19;;;;;;;2.40;2.30;;;14.00;81.60;;;;;;5042294;28;20545;-53
2023/07/14 00:55:49;;;;;;;3.10;2.57;;;13.90;88.40;;;;;;5050514;28;20461;-53
2023/07/14 00:58:19;;;;;;;4.63;2.70;;;13.90;84.10;;;;;;5052158;28;20502;-53
2023/07/14 01:01:09;;;;;;;3.50;2.63;;;13.80;85.90;;;;;;5049618;28;20458;-52
2023/07/14 01:03:39;;;;;;;5.13;2.47;;;13.90;79.80;;;;;;5049785;28;20458;-53
2023/07/14 01:06:08;;;;;;;3.90;2.90;;;13.80;82.40;;;;;;5050992;28;20888;-54
2023/07/14 01:08:39;;;;;;;4.50;3.03;;;13.80;85.40;;;;;;5052462;28;20959;-52
2023/07/14 01:11:05;;;;;;;3.93;2.73;;;13.70;84.20;;;;;;5045115;28;20470;-53
2023/07/14 01:13:32;;;;;;;3.80;2.77;;;13.70;83.30;;;;;;5050868;28;20454;-54
2023/07/14 01:15:59;;;;;;;2.93;2.70;;;13.70;82.70;;;;;;5050949;28;20494;-53
2023/07/14 01:18:28;;;;;;;6.10;2.43;;;13.70;82.20;;;;;;5049933;28;20572;-52
2023/07/14 01:20:54;;;;;;;2.20;2.10;;;13.70;87.00;;;;;;5050906;28;20465;-53
2023/07/14 01:23:44;;;;;;;10.27;3.03;;;13.60;86.00;;;;;;5046500;28;20489;-57
2023/07/14 01:26:19;;;;;;;5.93;3.47;;;13.60;84.30;;;;;;5040520;28;20491;-56
2023/07/14 01:28:48;;;;;;;4.40;3.30;;;13.60;88.00;;;;;;5044207;28;20493;-57
2023/07/14 01:31:21;;;;;;;2.90;2.43;;;13.50;85.50;;;;;;5050474;28;20454;-57
2023/07/14 01:33:48;;;;;;;3.07;2.87;;;13.50;87.70;;;;;;5050330;28;20497;-56
2023/07/14 01:36:14;;;;;;;3.73;3.17;;;13.60;85.90;;;;;;5043332;28;20489;-57
2023/07/14 01:38:41;;;;;;;2.73;2.53;;;13.50;88.90;;;;;;5042232;28;20550;-56
2023/07/14 01:41:08;;;;;;;4.97;2.70;;;13.40;89.40;;;;;;5050592;28;20536;-57
2023/07/14 01:43:36;;;;;;;2.57;2.37;;;13.40;88.20;;;;;;5050549;28;20462;-57
2023/07/14 01:46:07;;;;;;;4.70;2.53;;;13.40;86.40;;;;;;5050073;28;20461;-56
2023/07/14 01:48:37;;;;;;;3.97;2.53;;;13.30;82.20;;;;;;5049717;28;20513;-56
2023/07/14 01:51:08;;;;;;;2.63;2.43;;;13.40;81.10;;;;;;5047103;28;20462;-55
2023/07/14 01:53:39;;;;;;;3.80;2.77;;;13.40;83.60;;;;;;5043039;28;20561;-56
2023/07/14 01:56:09;;;;;;;2.63;2.43;;;13.30;85.00;;;;;;5046141;28;20493;-56
2023/07/14 01:58:49;;;;;;;2.80;2.50;;;13.30;87.60;;;;;;5050191;28;20508;-56
2023/07/14 02:01:18;;;;;;;3.83;2.60;;;13.20;86.80;;;;;;5047862;28;21054;-56
2023/07/14 02:03:50;;;;;;;2.93;2.47;;;13.30;83.70;;;;;;5047534;28;20544;-57
2023/07/14 02:06:17;;;;;;;5.00;3.20;;;13.30;82.90;;;;;;5044871;28;20990;-57
2023/07/14 02:08:44;;;;;;;5.50;3.13;;;13.20;88.40;;;;;;5048140;28;20565;-57
2023/07/14 02:11:15;;;;;;;2.70;2.20;;;13.20;89.00;;;;;;5050380;28;20461;-55
2023/07/14 02:13:42;;;;;;;4.23;2.73;;;13.30;86.30;;;;;;5045809;28;20552;-57
2023/07/14 02:16:14;;;;;;;3.77;2.80;;;13.20;89.90;;;;;;5047235;28;20497;-55
2023/07/14 02:18:43;;;;;;;3.53;2.60;;;13.20;88.40;;;;;;5046867;28;20482;-55
2023/07/14 02:21:11;;;;;;;3.40;2.70;;;13.20;85.20;;;;;;5050031;28;20457;-56
2023/07/14 02:23:40;;;;;;;4.03;2.57;;;13.20;87.60;;;;;;5042146;28;20470;-57
2023/07/14 02:26:19;;;;;;;2.53;2.43;;;13.10;90.90;;;;;;5040631;28;20900;-57
2023/07/14 02:28:45;;;;;;;3.33;3.00;;;13.10;91.20;;;;;;5051703;28;20569;-50
2023/07/14 02:31:20;;;;;;;3.10;2.53;;;13.10;86.90;;;;;;5047086;28;20884;-49
2023/07/14 02:33:51;;;;;;;3.43;3.10;;;13.00;89.10;;;;;;5042098;28;20901;-51
2023/07/14 02:36:24;;;;;;;4.03;3.07;;;13.10;85.30;;;;;;5041419;28;20540;-50
2023/07/14 02:38:55;;;;;;;2.60;2.50;;;13.10;91.30;;;;;;5041916;28;20481;-50
2023/07/14 02:41:25;;;;;;;4.13;2.67;;;13.00;93.00;;;;;;5048010;28;20951;-50
2023/07/14 02:43:54;;;;;;;2.77;2.67;;;13.00;91.10;;;;;;5049945;28;20492;-50
2023/07/14 02:46:25;;;;;;;2.70;2.50;;;13.00;92.20;;;;;;5045145;28;20501;-50
2023/07/14 02:48:54;;;;;;;2.97;2.60;;;13.00;90.10;;;;;;5043918;28;20518;-51
2023/07/14 02:51:20;;;;;;;3.10;2.90;;;13.00;88.50;;;;;;5042100;28;20542;-50
2023/07/14 02:53:47;;;;;;;3.87;3.00;;;13.00;87.70;;;;;;5048145;28;21035;-50
2023/07/14 02:56:14;;;;;;;5.60;2.90;;;13.00;86.70;;;;;;5048780;28;20450;-50
2023/07/14 02:58:40;;;;;;;3.90;2.77;;;13.00;85.00;;;;;;5055110;28;20525;-50
2023/07/14 03:01:07;;;;;;;3.00;2.80;;;13.00;86.40;;;;;;5053849;28;20489;-51
2023/07/14 03:03:35;;;;;;;3.50;3.20;;;12.90;87.60;;;;;;5050885;28;20549;-50
2023/07/14 03:06:02;;;;;;;3.00;2.33;;;12.90;89.70;;;;;;5047186;28;20913;-50
2023/07/14 03:08:29;;;;;;;8.03;3.10;;;13.00;87.30;;;;;;5050977;28;20581;-51
2023/07/14 03:10:57;;;;;;;4.00;3.27;;;13.00;88.30;;;;;;5051996;28;20975;-49
2023/07/14 03:13:24;;;;;;;3.43;2.87;;;13.00;88.30;;;;;;5053318;28;20512;-49
2023/07/14 03:15:51;;;;;;;4.07;3.20;;;13.00;87.60;;;;;;5041733;28;20558;-52
2023/07/14 03:18:18;;;;;;;2.87;2.77;;;13.00;87.80;;;;;;5050180;28;20539;-50
2023/07/14 03:20:45;;;;;;;4.97;2.93;;;13.10;85.20;;;;;;5050366;28;20493;-50
2023/07/14 03:23:13;;;;;;;4.50;3.20;;;13.10;88.50;;;;;;5053063;28;20915;-49
2023/07/14 03:25:40;;;;;;;3.13;2.93;;;13.10;90.10;;;;;;5052303;28;20488;-49
2023/07/14 03:28:07;;;;;;;4.70;3.57;;;13.10;89.00;;;;;;5051478;28;20496;-50
2023/07/14 03:30:40;;;;;;;3.60;3.30;;;13.10;90.50;;;;;;5053158;28;20504;-50
2023/07/14 03:33:06;;;;;;;4.20;3.30;;;13.10;88.80;;;;;;5050582;28;20650;-50
2023/07/14 03:35:34;;;;;;;3.73;3.20;;;13.10;90.90;;;;;;5049903;28;20553;-50
2023/07/14 03:38:00;;;;;;;4.03;2.60;;;13.10;86.60;;;;;;5053107;28;20480;-50
2023/07/14 03:40:28;;;;;;;5.77;3.67;;;13.10;90.70;;;;;;5053544;28;20544;-49
2023/07/14 03:42:55;;;;;;;8.90;3.40;;;13.10;89.50;;;;;;5052054;28;20545;-49
2023/07/14 03:45:21;;;;;;;4.40;3.70;;;13.10;89.10;;;;;;5051804;28;20500;-49
2023/07/14 03:47:49;;;;;;;5.00;4.50;;;13.20;88.00;;;;;;5051769;28;20520;-50
2023/07/14 03:50:16;;;;;;;5.93;4.43;;;13.10;87.50;;;;;;5052710;28;20466;-49
2023/07/14 03:52:42;;;;;;;14.53;4.20;;;13.20;86.90;;;;;;5052794;28;20545;-49
2023/07/14 03:55:09;;;;;;;4.93;4.47;;;13.20;86.30;;;;;;5050972;28;20473;-49
2023/07/14 03:57:37;;;;;;;5.03;3.93;;;13.20;85.20;;;;;;5044858;28;20596;-49
2023/07/14 04:00:12;;;;;;;7.33;4.70;;;13.20;85.50;;;;;;5046497;28;20461;-50
2023/07/14 04:02:39;;;;;;;8.00;4.37;;;13.30;85.10;;;;;;5050912;28;20458;-49
2023/07/14 04:05:07;;;;;;;5.50;4.60;;;13.30;85.20;;;;;;5049758;28;20556;-49
2023/07/14 04:07:34;;;;;;;6.53;4.03;;;13.40;85.30;;;;;;5050463;28;20490;-49
2023/07/14 04:10:00;;;;;;;5.90;4.10;;;13.50;88.20;;;;;;5046916;28;20640;-50
2023/07/14 04:12:27;;;;;;;7.67;4.50;;;13.40;89.10;;;;;;5049746;28;20953;-50
2023/07/14 04:14:54;;;;;;;5.47;4.20;;;13.50;88.20;;;;;;5048616;28;20517;-49
2023/07/14 04:17:22;;;;;;;7.60;5.27;;;13.50;89.40;;;;;;5051594;28;20504;-49
2023/07/14 04:19:48;;;;;;;13.93;4.90;;;13.50;89.50;;;;;;5042284;28;20465;-49
2023/07/14 04:22:15;;;;;;;6.80;4.80;;;13.60;87.00;;;;;;5050962;28;20999;-50
2023/07/14 04:24:42;;;;;;;7.20;5.10;;;13.60;87.80;;;;;;5050313;28;21014;-49
2023/07/14 04:27:08;;;;;;;7.40;5.40;;;13.60;87.30;;;;;;5048975;28;20518;-49
2023/07/14 04:29:35;;;;;;;5.53;4.93;;;13.60;85.90;;;;;;5048987;28;20517;-49
2023/07/14 04:32:03;;;;;;;8.17;5.80;;;13.60;85.10;;;;;;5052006;28;20553;-49
2023/07/14 04:34:30;;;;;;;9.47;5.40;;;13.70;83.20;;;;;;5049236;28;20497;-49
2023/07/14 04:36:57;;;;;;;11.43;5.70;;;13.80;83.10;;;;;;5048112;28;20560;-50
2023/07/14 04:39:24;;;;;;;5.60;4.93;;;13.80;84.00;;;;;;5052226;28;20481;-49
2023/07/14 04:41:51;;;;;;;11.53;6.00;;;13.80;82.90;;;;;;5051251;28;20472;-49
2023/07/14 04:44:18;;;;;;;8.53;5.37;;;13.80;82.50;;;;;;5050819;28;20871;-49
2023/07/14 04:46:45;;;;;;;6.77;5.10;;;13.90;82.90;;;;;;5044962;28;20535;-49
2023/07/14 04:49:14;;;;;;;7.10;5.13;;;13.90;82.50;;;;;;5051026;28;20520;-49
2023/07/14 04:51:41;;;;;;;6.23;5.63;;;14.00;79.80;;;;;;5044557;28;20557;-48
2023/07/14 04:54:08;;;;;;;10.77;5.20;;;14.10;81.70;;;;;;5049372;28;20594;-50
2023/07/14 04:56:37;;;;;;;7.03;5.73;;;14.10;82.30;;;;;;5050131;28;21217;-50
2023/07/14 04:59:05;;;;;;;9.03;5.70;;;14.10;82.50;;;;;;5045313;28;20507;-50
2023/07/14 05:01:32;;;;;;;16.93;5.37;;;14.10;83.10;;;;;;5046604;28;20498;-49
2023/07/14 05:03:58;;;;;;;7.67;6.00;;;14.20;83.10;;;;;;5043902;28;20493;-49
2023/07/14 05:06:26;;;;;;;6.63;5.23;;;14.30;83.80;;;;;;5046739;28;20500;-57
2023/07/14 05:08:53;;;;;;;5.63;5.10;;;14.30;85.10;;;;;;5045891;28;20561;-56
2023/07/14 05:11:19;;;;;;;10.03;5.40;;;14.30;86.80;;;;;;5052682;28;20480;-58
2023/07/14 05:13:46;;;;;;;11.33;5.40;;;14.40;87.80;;;;;;5038960;28;20556;-56
2023/07/14 05:16:13;;;;;;;5.67;4.83;;;14.40;87.80;;;;;;5049178;28;20454;-57
2023/07/14 05:18:39;;;;;;;8.60;4.33;;;14.50;86.80;;;;;;5048675;28;20505;-57
2023/07/14 05:21:06;;;;;;;5.00;4.50;;;14.60;86.80;;;;;;5051978;28;20454;-51
2023/07/14 05:23:34;;;;;;;5.90;4.77;;;14.60;87.10;;;;;;5049345;28;20549;-50
2023/07/14 05:26:01;;;;;;;5.90;5.30;;;14.70;87.80;;;;;;5040333;28;20573;-50
2023/07/14 05:28:28;;;;;;;6.10;4.83;;;14.70;87.80;;;;;;5050520;28;20521;-51
2023/07/14 05:30:54;;;;;;;5.13;4.40;;;14.80;87.30;;;;;;5048027;28;20549;-51
2023/07/14 05:33:21;;;;;;;5.20;4.60;;;14.80;88.40;;;;;;5046550;28;20450;-50
2023/07/14 05:35:48;;;;;;;5.77;4.37;;;14.90;91.60;;;;;;5047933;28;21010;-50
2023/07/14 05:38:16;;;;;;;6.20;4.73;;;15.00;93.40;;;;;;5047332;28;20580;-51
2023/07/14 05:40:45;;;;;;;10.93;4.37;;;15.00;96.00;;;;;;5047843;28;20517;-50
2023/07/14 05:43:12;;;;;;;7.40;5.00;;;15.10;98.60;;;;;;5047257;28;20939;-50
2023/07/14 05:45:39;;;;;;;4.80;4.30;;;15.10;99.90;;;;;;5046863;28;20465;-50
2023/07/14 05:48:06;;;;;;;7.13;4.40;;;15.20;99.90;;;;;;5045657;28;20545;-50
2023/07/14 05:50:33;;;;;;;4.63;4.20;;;15.30;99.90;;;;;;5041991;28;20462;-51
2023/07/14 05:52:59;;;;;;;5.50;4.53;;;15.40;99.90;;;;;;5040865;28;20546;-52
2023/07/14 05:55:26;;;;;;;4.60;4.20;;;15.40;99.90;;;;;;5045519;28;20895;-50
2023/07/14 05:57:53;;;;;;;4.77;3.87;;;15.50;99.90;;;;;;5047290;28;20564;-50
2023/07/14 06:00:20;;;;;;;4.00;3.57;;;15.50;99.90;;;;;;5045552;28;20909;-50
2023/07/14 06:02:49;;;;;;;3.17;2.97;;;15.70;99.90;;;;;;5047211;28;20462;-51
2023/07/14 06:05:17;;;;;;;4.73;3.73;;;15.80;99.90;;;;;;5047790;28;20521;-50
2023/07/14 06:07:43;;;;;;;4.87;3.73;;;15.80;99.90;;;;;;5048654;28;21064;-50
2023/07/14 06:10:12;;;;;;;4.30;3.60;;;15.90;99.90;;;;;;5049125;28;20501;-51
2023/07/14 06:12:39;;;;;;;4.70;3.57;;;16.00;99.90;;;;;;5039781;28;20494;-51
2023/07/14 06:15:08;;;;;;;4.63;3.60;;;16.00;99.90;;;;;;5042668;28;20465;-50
2023/07/14 06:17:35;;;;;;;4.83;3.40;;;16.10;99.90;;;;;;5049048;28;20577;-50
2023/07/14 06:20:01;;;;;;;4.17;3.60;;;16.20;99.90;;;;;;5041961;28;20477;-50
2023/07/14 06:22:28;;;;;;;7.13;3.70;;;16.20;99.90;;;;;;5042260;28;20968;-49
2023/07/14 06:24:55;;;;;;;5.70;4.67;;;16.30;99.90;;;;;;5042213;28;20562;-50
2023/07/14 06:27:23;;;;;;;10.37;4.07;;;16.40;99.90;;;;;;5044062;28;20496;-51
2023/07/14 06:29:49;;;;;;;14.83;4.77;;;16.50;99.90;;;;;;5044637;28;20569;-50
2023/07/14 06:32:17;;;;;;;7.60;4.57;;;16.60;99.90;;;;;;5049970;28;20516;-50
2023/07/14 06:34:44;;;;;;;11.50;4.13;;;16.70;99.90;;;;;;5047797;28;20450;-51
2023/07/14 06:37:10;;;;;;;7.67;4.13;;;16.70;99.90;;;;;;5049801;28;20513;-50
2023/07/14 06:39:37;;;;;;;8.17;4.70;;;16.70;99.90;;;;;;5047974;28;20487;-49
2023/07/14 06:42:04;;;;;;;5.30;4.80;;;16.80;99.90;;;;;;5041944;28;20510;-52
2023/07/14 06:44:30;;;;;;;9.23;4.40;;;16.90;99.90;;;;;;5048673;28;20461;-51
2023/07/14 06:46:57;;;;;;;7.17;4.20;;;16.90;99.90;;;;;;5048703;28;20578;-51
2023/07/14 06:49:25;;;;;;;4.87;3.90;;;17.00;99.90;;;;;;5049778;28;20543;-51
2023/07/14 06:51:51;;;;;;;7.30;4.57;;;17.10;99.90;;;;;;5044928;28;20463;-52
2023/07/14 06:54:18;;;;;;;6.03;3.73;;;17.10;78.30;;;;;;5037907;28;20501;-51
2023/07/14 06:56:45;;;;;;;5.27;4.30;;;17.20;84.10;;;;;;5050594;28;20485;-53
2023/07/14 06:59:12;;;;;;;6.20;4.07;;;17.30;99.90;;;;;;5048330;28;20457;-52
2023/07/14 07:01:38;;;;;;;10.37;3.60;;;17.30;99.90;;;;;;5045516;28;20524;-51
2023/07/14 07:04:06;;;;;;;11.60;4.30;;;17.40;43.90;;;;;;5046727;28;20879;-51
2023/07/14 07:06:38;;;;;;;4.17;3.33;;;17.30;47.00;;;;;;5046987;28;20461;-50
2023/07/14 07:09:17;;;;;;;5.53;3.77;;;17.40;51.70;;;;;;5049224;28;20912;-50
2023/07/14 07:11:58;;;;;;;4.50;3.10;;;17.40;55.90;;;;;;5039826;28;20488;-51
2023/07/14 07:14:45;;;;;;;4.57;2.30;;;17.50;53.30;;;;;;5043068;28;20549;-50
2023/07/14 07:17:23;;;;;;;3.27;2.37;;;17.50;68.50;;;;;;5044352;28;20501;-50
2023/07/14 07:19:59;;;;;;;3.47;3.00;;;17.60;73.90;;;;;;5047144;28;20453;-50
2023/07/14 07:22:46;;;;;;;9.50;2.50;;;17.60;84.70;;;;;;5049393;28;20869;-51
2023/07/14 07:25:26;;;;;;;7.40;2.70;;;17.70;77.60;;;;;;5048397;28;20461;-50
2023/07/14 07:31:00;;;;;;;2.47;2.27;;;17.80;72.90;;;;;;5032831;28;20465;-52
2023/07/14 07:33:31;;;;;;;4.03;2.90;;;17.90;59.60;;;;;;5045313;28;21033;-52
2023/07/14 07:36:15;;;;;;;3.10;2.53;;;18.00;69.10;;;;;;5044834;28;20458;-50
2023/07/14 07:41:57;;;;;;;6.40;3.00;;;18.20;81.50;;;;;;5045316;28;20458;-50
2023/07/14 07:44:32;;;;;;;4.53;2.60;;;18.30;81.30;;;;;;5046301;28;20554;-51
2023/07/14 07:47:01;;;;;;;5.47;2.27;;;18.40;99.90;;;;;;5051271;28;20555;-50
2023/07/14 07:49:57;;;;;;;9.80;3.60;;;18.50;99.90;;;;;;5047308;28;20481;-51
2023/07/14 07:58:54;;;;;;;5.07;2.00;;;18.80;99.90;;;;;;5043063;28;21522;-50
2023/07/14 08:01:28;;;;;;;5.17;2.60;;;18.80;99.90;;;;;;5050447;28;20924;-51
2023/07/14 08:04:07;;;;;;;2.60;2.27;;;18.90;99.90;;;;;;5052467;28;20458;-50
2023/07/14 08:06:47;;;;;;;3.90;2.50;;;19.10;99.90;;;;;;5048430;28;20545;-51
2023/07/14 08:09:22;;;;;;;4.27;2.20;;;19.10;99.90;;;;;;5052495;28;20927;-50
2023/07/14 08:12:00;;;;;;;2.83;2.63;;;19.20;99.90;;;;;;5038285;28;20543;-50
2023/07/14 08:14:43;;;;;;;;;;;;;;;;;;;;;
2023/07/14 08:17:13;;;;;;;3.97;2.57;;;19.50;99.90;;;;;;5052580;28;20485;-50
2023/07/14 08:19:47;;;;;;;5.03;2.67;;;19.60;99.90;;;;;;5052364;28;20952;-50
2023/07/14 08:22:17;;;;;;;4.00;2.50;;;19.70;99.90;;;;;;5052792;28;20464;-50
2023/07/14 08:25:01;;;;;;;8.67;2.80;;;19.80;99.90;;;;;;5053165;28;20871;-51
2023/07/14 08:27:29;;;;;;;3.80;2.17;;;19.90;99.90;;;;;;5052572;28;20514;-50
2023/07/14 08:29:55;;;;;;;4.70;2.73;;;20.00;99.90;;;;;;5051791;28;20543;-52
2023/07/14 08:32:22;;;;;;;3.80;2.83;;;20.00;28.60;;;;;;5048916;28;20511;-51
2023/07/14 08:34:49;;;;;;;4.17;2.40;;;20.20;23.90;;;;;;5049479;28;20549;-51
2023/07/14 08:37:15;;;;;;;5.03;2.83;;;20.20;26.20;;;;;;5048733;28;20524;-50
2023/07/14 08:39:42;;;;;;;8.73;2.70;;;20.40;20.30;;;;;;5046566;28;20925;-50
2023/07/14 08:42:23;;;;;;;4.63;2.60;;;20.40;42.80;;;;;;5051584;28;20521;-51
2023/07/14 08:45:08;;;;;;;3.90;2.20;;;20.50;70.70;;;;;;5051339;28;21030;-50
2023/07/14 08:47:47;;;;;;;4.40;2.33;;;20.70;72.00;;;;;;5049493;28;20481;-50
2023/07/14 08:50:19;;;;;;;1.90;1.50;;;20.80;71.40;;;;;;5046059;28;20937;-51
2023/07/14 08:52:46;;;;;;;3.70;1.90;;;20.80;99.90;;;;;;5048570;28;20493;-51
2023/07/14 08:55:17;;;;;;;1.73;1.57;;;20.80;99.90;;;;;;5048764;28;21021;-51
2023/07/14 08:57:48;;;;;;;13.10;2.27;;;20.90;99.90;;;;;;5041853;28;21080;-51
2023/07/14 09:00:24;;;;;;;3.03;1.97;;;21.10;99.90;;;;;;5050608;28;20492;-51
2023/07/14 09:03:02;;;;;;;4.77;2.30;;;21.20;99.90;;;;;;5050586;28;20469;-51
2023/07/14 09:05:29;;;;;;;4.90;2.37;;;21.50;99.90;;;;;;5046995;28;20453;-50
2023/07/14 09:07:56;;;;;;;2.10;1.67;;;21.60;99.90;;;;;;5051142;28;20560;-50
2023/07/14 09:10:33;;;;;;;1.87;1.57;;;21.80;99.90;;;;;;5050571;28;20585;-51
2023/07/14 09:13:06;;;;;;;6.07;2.40;;;21.70;99.90;;;;;;5047942;28;20553;-51
2023/07/14 09:15:35;;;;;;;3.07;2.07;;;22.10;99.90;;;;;;5051052;28;20837;-49
2023/07/14 09:18:20;;;;;;;4.27;1.53;;;22.50;99.90;;;;;;5049508;28;20501;-51
2023/07/14 09:21:07;;;;;;;5.40;2.50;;;22.80;99.90;;;;;;5047791;28;20523;-51
2023/07/14 09:24:02;;;;;;;3.23;1.97;;;22.80;99.90;;;;;;5049738;28;20544;-50
2023/07/14 09:26:32;;;;;;;5.17;2.40;;;22.70;99.90;;;;;;5050833;28;20469;-51
2023/07/14 09:29:08;;;;;;;5.17;2.33;;;22.60;99.90;;;;;;5045223;28;20887;-50
2023/07/14 09:31:40;;;;;;;9.23;1.83;;;22.50;99.90;;;;;;5051591;28;20496;-51
2023/07/14 09:34:13;;;;;;;3.83;2.20;;;22.30;99.90;;;;;;5042935;28;20462;-50
2023/07/14 09:36:40;;;;;;;3.13;1.57;;;22.10;99.90;;;;;;5046864;28;20486;-51
2023/07/14 09:39:16;;;;;;;6.07;2.50;;;22.50;99.90;;;;;;5050619;28;20562;-51
2023/07/14 09:41:43;;;;;;;6.43;2.43;;;22.80;99.90;;;;;;5048232;28;20906;-50
2023/07/14 09:44:11;;;;;;;8.13;1.93;;;22.60;99.90;;;;;;5050651;28;20835;-50
2023/07/14 09:46:44;;;;;;;2.07;1.97;;;22.50;99.90;;;;;;5049453;28;20488;-50
2023/07/14 09:49:17;;;;;;;5.47;2.13;;;22.20;99.90;;;;;;5049326;28;20551;-52
2023/07/14 09:52:01;;;;;;;2.47;1.63;;;22.20;99.90;;;;;;5043106;28;20963;-51
2023/07/14 09:54:28;;;;;;;3.13;1.80;;;22.80;99.90;;;;;;5049861;28;20462;-50
2023/07/14 09:57:01;;;;;;;2.13;1.90;;;23.50;99.90;;;;;;5048624;28;20514;-51
2023/07/14 09:59:28;;;;;;;3.77;2.13;;;23.90;99.90;;;;;;5049099;28;20465;-49
2023/07/14 10:01:59;;;;;;;5.23;2.43;;;23.90;99.90;;;;;;5041141;28;20467;-51
2023/07/14 10:04:28;;;;;;;6.07;2.10;;;23.80;99.90;;;;;;5049270;28;20476;-51
2023/07/14 10:06:55;;;;;;;8.73;1.60;;;23.70;99.90;;;;;;5048603;28;20481;-50
2023/07/14 10:09:23;;;;;;;2.23;1.70;;;23.90;99.90;;;;;;5049070;28;20517;-50
2023/07/14 10:11:52;;;;;;;1.80;1.70;;;24.10;99.90;;;;;;5041847;28;20462;-50
2023/07/14 10:14:25;;;;;;;3.80;1.70;;;24.30;99.90;;;;;;5051129;28;20520;-50
2023/07/14 10:16:53;;;;;;;8.60;1.70;;;24.40;99.90;;;;;;5042138;28;20478;-51
2023/07/14 10:19:23;;;;;;;1.97;1.80;;;24.10;99.90;;;;;;5045070;28;20462;-51
2023/07/14 10:21:53;;;;;;;5.30;2.10;;;23.70;99.90;;;;;;5048465;28;20973;-51
2023/07/14 10:24:20;;;;;;;2.70;1.70;;;23.40;99.90;;;;;;5043159;28;21034;-51
2023/07/14 10:26:52;;;;;;;4.70;2.00;;;23.50;99.90;;;;;;5050798;28;20485;-52
2023/07/14 10:29:21;;;;;;;4.13;2.00;;;24.00;99.90;;;;;;5050180;28;20481;-53
2023/07/14 10:31:54;;;;;;;2.77;1.70;;;24.80;99.90;;;;;;5048635;28;20493;-52
2023/07/14 10:34:33;;;;;;;6.20;1.77;;;25.10;99.90;;;;;;5047792;28;20498;-52
2023/07/14 10:37:05;;;;;;;6.37;1.80;;;26.10;99.90;;;;;;5045758;28;21022;-53
2023/07/14 10:39:38;;;;;;;1.80;1.67;;;25.90;99.90;;;;;;5046447;28;20458;-52
2023/07/14 10:42:11;;;;;;;1.93;1.80;;;26.20;99.90;;;;;;5049239;28;20481;-53
2023/07/14 10:44:42;;;;;;;6.13;1.70;;;25.50;99.90;;;;;;5049577;28;20481;-53
2023/07/14 10:47:15;;;;;;;2.37;1.37;;;24.80;99.90;;;;;;5050881;28;20488;-54
2023/07/14 10:49:46;;;;;;;5.50;1.93;;;24.10;99.90;;;;;;5050177;28;20478;-52
2023/07/14 10:52:19;;;;;;;3.40;1.93;;;24.10;99.90;;;;;;5045165;28;20955;-52
2023/07/14 10:54:50;;;;;;;2.10;1.90;;;24.50;99.90;;;;;;5048485;28;20541;-52
2023/07/14 10:57:35;;;;;;;1.90;1.30;;;25.40;99.90;;;;;;5049326;28;20569;-52
2023/07/14 11:00:19;;;;;;;1.97;1.57;;;25.20;99.90;;;;;;5047573;28;20588;-53
2023/07/14 11:02:54;;;;;;;4.13;1.37;;;25.20;99.90;;;;;;5039611;28;20490;-53
2023/07/14 11:05:25;;;;;;;4.50;1.80;;;25.80;99.90;;;;;;5045990;28;20545;-53
2023/07/14 11:07:53;;;;;;;3.73;1.77;;;25.60;99.90;;;;;;5048754;28;20482;-52
2023/07/14 11:10:30;;;;;;;2.90;1.80;;;26.60;99.90;;;;;;5039482;28;20574;-52
2023/07/14 11:13:05;;;;;;;13.03;1.93;;;25.90;99.90;;;;;;5043854;28;21665;-53
2023/07/14 11:15:41;;;;;;;3.20;1.63;;;26.30;99.90;;;;;;5046386;28;20497;-53
2023/07/14 11:18:19;;;;;;;4.10;2.20;;;25.90;99.90;;;;;;5048909;28;20484;-52
2023/07/14 11:20:57;;;;;;;3.80;1.97;;;25.00;99.90;;;;;;5047032;28;20544;-53
2023/07/14 11:23:32;;;;;;;3.50;2.13;;;25.10;99.90;;;;;;5052522;28;20469;-52
2023/07/14 11:26:06;;;;;;;1.43;1.27;;;25.20;99.90;;;;;;5047139;28;20461;-52
2023/07/14 11:28:39;;;;;;;2.00;1.57;;;25.20;99.90;;;;;;5051938;28;20521;-52
2023/07/14 11:31:21;;;;;;;10.57;1.70;;;25.60;99.90;;;;;;5053390;28;20576;-52
2023/07/14 11:33:54;;;;;;;2.97;1.90;;;25.10;99.90;;;;;;5049655;28;20556;-53
2023/07/14 11:36:29;;;;;;;2.30;1.97;;;25.40;99.90;;;;;;5054363;28;20637;-52
2023/07/14 11:38:59;;;;;;;1.60;1.50;;;25.30;99.90;;;;;;5053618;28;20987;-53
2023/07/14 11:41:27;;;;;;;6.30;1.93;;;24.80;99.90;;;;;;5053861;28;20489;-52
2023/07/14 11:43:54;;;;;;;4.57;1.67;;;24.50;99.90;;;;;;5046794;28;20489;-51
2023/07/14 11:46:25;;;;;;;2.00;1.90;;;23.90;99.90;;;;;;5043884;28;20911;-53
2023/07/14 11:49:04;;;;;;;2.17;1.97;;;24.20;99.90;;;;;;5052783;28;20548;-52
2023/07/14 11:51:49;;;;;;;1.97;1.77;;;24.80;99.90;;;;;;5042968;28;20490;-53
2023/07/14 11:54:18;;;;;;;2.40;2.20;;;24.90;99.90;;;;;;5049687;28;20527;-52
2023/07/14 11:56:58;;;;;;;3.00;2.10;;;24.90;99.90;;;;;;5044193;28;21074;-52
2023/07/14 11:59:28;;;;;;;2.07;1.87;;;24.80;99.90;;;;;;5052646;28;20514;-52
2023/07/14 12:01:57;;;;;;;8.23;2.40;;;24.50;99.90;;;;;;5048187;28;20541;-51
2023/07/14 12:04:28;;;;;;;10.70;1.87;;;24.20;99.90;;;;;;5041009;28;20459;-52
2023/07/14 12:07:15;;;;;;;3.53;1.67;;;24.50;99.90;;;;;;5045581;28;20856;-52
2023/07/14 12:10:13;;;;;;;1.80;1.70;;;24.90;99.90;;;;;;5044471;28;20485;-52
2023/07/14 12:12:41;;;;;;;8.43;2.20;;;25.60;99.90;;;;;;5046175;28;20545;-52
2023/07/14 12:15:42;;;;;;;3.10;2.50;;;25.80;99.90;;;;;;5050466;28;20540;-52
2023/07/14 12:18:27;;;;;;;1.83;1.73;;;26.00;99.90;;;;;;5047212;28;20477;-52
2023/07/14 12:21:30;;;;;;;2.60;2.30;;;25.60;99.90;;;;;;5046032;28;21016;-53
2023/07/14 12:24:01;;;;;;;2.63;2.00;;;25.80;99.90;;;;;;5046389;28;20533;-54
2023/07/14 12:26:35;;;;;;;2.23;1.77;;;26.10;99.90;;;;;;5051733;28;20501;-52
2023/07/14 12:29:04;;;;;;;4.50;2.50;;;26.00;99.90;;;;;;5050180;28;20466;-52
2023/07/14 12:31:36;;;;;;;2.10;2.00;;;26.00;99.90;;;;;;5053002;28;20485;-53
2023/07/14 12:34:03;;;;;;;2.50;2.30;;;25.50;99.90;;;;;;5052486;28;20458;-53
2023/07/14 12:36:31;;;;;;;2.23;2.03;;;26.10;99.90;;;;;;5049778;28;20462;-52
2023/07/14 12:38:59;;;;;;;10.60;2.77;;;26.40;99.90;;;;;;5051710;28;21048;-52
2023/07/14 12:41:29;;;;;;;9.30;2.77;;;27.00;99.90;;;;;;5050544;28;20537;-53
2023/07/14 12:44:01;;;;;;;3.37;2.07;;;27.10;99.90;;;;;;5051933;28;20494;-52
2023/07/14 12:46:30;;;;;;;2.03;1.93;;;27.90;99.90;;;;;;5052327;28;20493;-53
2023/07/14 12:49:02;;;;;;;2.63;2.43;;;28.10;99.90;;;;;;5044780;28;20499;-52
2023/07/14 12:51:31;;;;;;;2.60;2.00;;;28.40;99.90;;;;;;5046481;28;20482;-53
2023/07/14 12:53:59;;;;;;;5.70;2.50;;;27.30;99.90;;;;;;5046686;28;20520;-53
2023/07/14 12:56:28;;;;;;;2.70;2.43;;;27.00;99.90;;;;;;5050950;28;20461;-52
2023/07/14 12:58:55;;;;;;;5.83;3.60;;;26.50;99.90;;;;;;5051085;28;20496;-53
2023/07/14 13:01:21;;;;;;;4.30;3.37;;;26.50;99.90;;;;;;5046653;28;20549;-52
2023/07/14 13:03:48;;;;;;;3.50;2.77;;;26.20;99.90;;;;;;5048287;28;20501;-54
2023/07/14 13:06:16;;;;;;;2.67;2.33;;;26.00;99.90;;;;;;5048759;28;20486;-52
2023/07/14 13:08:47;;;;;;;2.83;2.23;;;25.80;99.90;;;;;;5045952;28;20492;-52
2023/07/14 13:11:19;;;;;;;3.37;3.07;;;25.60;99.90;;;;;;5045602;28;20901;-53
2023/07/14 13:13:49;;;;;;;2.70;2.20;;;25.30;99.90;;;;;;5048599;28;21016;-52
2023/07/14 13:16:16;;;;;;;5.20;2.80;;;25.10;99.90;;;;;;5050356;28;20538;-53
2023/07/14 13:18:54;;;;;;;3.57;2.73;;;25.10;99.90;;;;;;5041396;28;20532;-53